Time;durP1;ratioP1;P1;durP2;ratioP2;P2;SDS_P1;SDS_P2;PMS_P1;PMS_P2;Temp;Humidity;BMP_temperature;BMP_pressure;BME280_temperature;BME280_humidity;BME280_pressure;Samples;Min_cycle;Max_cycle;Signal;HPM_P1;HPM_P2
2022/04/05 00:00:13;;;;;;;26.13;17.60;;;19.20;99.90;;;;;;5035170;28;20580;-67
2022/04/05 00:02:39;;;;;;;30.45;17.63;;;19.20;99.90;;;;;;5034418;28;20029;-67
2022/04/05 00:05:06;;;;;;;28.55;19.15;;;19.20;99.90;;;;;;5033260;28;20362;-68
2022/04/05 00:07:32;;;;;;;27.23;17.27;;;19.20;99.90;;;;;;5034385;28;20045;-68
2022/04/05 00:09:57;;;;;;;24.23;17.05;;;19.20;99.90;;;;;;5034345;28;20025;-68
2022/04/05 00:12:23;;;;;;;29.13;17.77;;;19.20;99.90;;;;;;5034423;28;20026;-68
2022/04/05 00:14:50;;;;;;;29.63;18.27;;;19.20;99.90;;;;;;5034232;28;20528;-67
2022/04/05 00:17:16;;;;;;;27.45;18.77;;;19.20;99.90;;;;;;5034405;28;20045;-67
2022/04/05 00:19:42;;;;;;;27.67;18.00;;;19.20;99.90;;;;;;5034161;28;20041;-67
2022/04/05 00:22:08;;;;;;;27.00;18.13;;;19.20;99.90;;;;;;5034109;28;20030;-69
2022/04/05 00:24:33;;;;;;;24.75;16.90;;;19.20;99.90;;;;;;5032922;28;20094;-70
2022/04/05 00:26:59;;;;;;;25.15;17.55;;;19.20;99.90;;;;;;5034044;28;20558;-70
2022/04/05 00:29:25;;;;;;;27.15;18.10;;;19.20;99.90;;;;;;5034038;28;20068;-70
2022/04/05 00:31:51;;;;;;;27.13;18.95;;;19.20;99.90;;;;;;5032740;28;20049;-70
2022/04/05 00:34:18;;;;;;;30.88;17.58;;;19.20;99.90;;;;;;5034112;28;20036;-70
2022/04/05 00:36:44;;;;;;;25.27;17.73;;;19.20;99.90;;;;;;5034011;28;20477;-70
2022/04/05 00:39:11;;;;;;;28.63;17.40;;;19.20;99.90;;;;;;5033759;28;20073;-70
2022/04/05 00:41:37;;;;;;;25.60;17.00;;;19.20;99.90;;;;;;5033832;28;20477;-70
2022/04/05 00:44:03;;;;;;;27.42;18.17;;;19.20;99.90;;;;;;5032481;28;20044;-70
2022/04/05 00:46:30;;;;;;;29.15;18.58;;;19.20;99.90;;;;;;5033833;28;20021;-66
2022/04/05 00:48:57;;;;;;;27.98;18.33;;;19.20;99.90;;;;;;5033618;28;20031;-64
2022/04/05 00:51:24;;;;;;;24.75;17.02;;;19.20;99.90;;;;;;5032303;28;20393;-65
2022/04/05 00:53:57;;;;;;;28.20;18.23;;;19.20;99.90;;;;;;5033673;28;20108;-66
2022/04/05 00:56:24;;;;;;;27.40;17.13;;;19.20;99.90;;;;;;5033492;28;20611;-65
2022/04/05 00:58:54;;;;;;;30.58;18.52;;;19.20;99.90;;;;;;5031921;28;20393;-65
2022/04/05 01:01:21;;;;;;;26.50;18.02;;;19.20;99.90;;;;;;5033128;28;20053;-65
2022/04/05 01:03:53;;;;;;;27.98;17.95;;;19.20;99.90;;;;;;5033496;28;20099;-65
2022/04/05 01:06:23;;;;;;;26.35;17.38;;;19.10;99.90;;;;;;5033463;28;20044;-65
2022/04/05 01:08:49;;;;;;;28.90;18.75;;;19.20;99.90;;;;;;5033194;28;20022;-66
2022/04/05 01:11:16;;;;;;;26.95;17.75;;;19.10;99.90;;;;;;5033257;28;20025;-66
2022/04/05 01:13:43;;;;;;;25.20;17.30;;;19.20;99.90;;;;;;5031781;28;20491;-65
2022/04/05 01:16:11;;;;;;;25.30;17.77;;;19.10;99.90;;;;;;5033069;28;20474;-66
2022/04/05 01:18:37;;;;;;;23.77;15.75;;;19.10;99.90;;;;;;5033063;28;20037;-72
2022/04/05 01:21:03;;;;;;;26.70;18.17;;;19.10;99.90;;;;;;5031874;28;20025;-72
2022/04/05 01:23:30;;;;;;;26.10;17.08;;;19.10;99.90;;;;;;5032833;28;20072;-70
2022/04/05 01:25:56;;;;;;;26.95;17.10;;;19.10;99.90;;;;;;5032881;28;20989;-71
2022/04/05 01:28:25;;;;;;;25.63;16.77;;;19.10;99.90;;;;;;5032977;28;20017;-72
2022/04/05 01:30:52;;;;;;;26.65;17.35;;;19.10;99.90;;;;;;5031540;28;20022;-72
2022/04/05 01:33:18;;;;;;;25.23;16.40;;;19.10;99.90;;;;;;5032826;28;20021;-72
2022/04/05 01:35:45;;;;;;;26.17;16.13;;;19.10;99.90;;;;;;5032721;28;20025;-72
2022/04/05 01:38:11;;;;;;;26.02;16.70;;;19.10;99.90;;;;;;5032666;28;20093;-72
2022/04/05 01:40:38;;;;;;;27.02;15.52;;;19.10;99.90;;;;;;5032652;28;20033;-73
2022/04/05 01:43:04;;;;;;;25.55;16.30;;;19.10;99.90;;;;;;5031618;28;20041;-69
2022/04/05 01:45:30;;;;;;;23.23;16.15;;;19.10;99.90;;;;;;5032518;28;20130;-67
2022/04/05 01:47:56;;;;;;;23.20;15.23;;;19.00;99.90;;;;;;5030729;28;20029;-69
2022/04/05 01:50:22;;;;;;;23.30;15.20;;;19.10;99.90;;;;;;5032570;28;20033;-71
2022/04/05 01:52:48;;;;;;;21.98;15.02;;;19.00;99.90;;;;;;5032411;28;20026;-67
2022/04/05 01:55:14;;;;;;;23.98;15.55;;;19.00;99.90;;;;;;5032604;28;20025;-67
2022/04/05 01:57:39;;;;;;;24.77;15.15;;;19.10;99.90;;;;;;5031054;28;20027;-65
2022/04/05 02:00:14;;;;;;;25.00;14.82;;;19.10;99.90;;;;;;5032892;28;20057;-63
2022/04/05 02:02:41;;;;;;;25.73;14.57;;;19.00;99.90;;;;;;5032309;28;20021;-63
2022/04/05 02:05:07;;;;;;;24.63;15.07;;;19.10;99.90;;;;;;5032392;28;20100;-62
2022/04/05 02:07:33;;;;;;;23.75;14.25;;;19.10;99.90;;;;;;5032393;28;20452;-62
2022/04/05 02:09:59;;;;;;;24.52;14.82;;;19.00;99.90;;;;;;5030916;28;20026;-62
2022/04/05 02:12:24;;;;;;;21.88;13.90;;;19.00;99.90;;;;;;5030789;28;20108;-70
2022/04/05 02:14:50;;;;;;;21.65;13.23;;;19.00;99.90;;;;;;5031933;28;20049;-70
2022/04/05 02:17:16;;;;;;;21.02;14.23;;;19.00;99.90;;;;;;5031876;28;20029;-70
2022/04/05 02:19:43;;;;;;;22.42;13.50;;;19.00;99.90;;;;;;5031912;28;20033;-67
2022/04/05 02:22:09;;;;;;;20.70;12.43;;;19.00;99.90;;;;;;5031958;28;20030;-66
2022/04/05 02:24:35;;;;;;;17.58;12.63;;;19.00;99.90;;;;;;5031936;28;20440;-66
2022/04/05 02:27:01;;;;;;;20.50;13.30;;;19.00;99.90;;;;;;5031757;28;20028;-66
2022/04/05 02:29:27;;;;;;;19.58;12.25;;;19.00;99.90;;;;;;5031865;28;20072;-64
2022/04/05 02:31:52;;;;;;;21.98;13.63;;;18.90;99.90;;;;;;5031681;28;20374;-64
2022/04/05 02:34:18;;;;;;;18.77;12.30;;;18.90;99.90;;;;;;5031690;28;20317;-64
2022/04/05 02:36:44;;;;;;;19.52;11.85;;;18.90;99.90;;;;;;5031556;28;20426;-64
2022/04/05 02:39:11;;;;;;;22.30;13.35;;;18.90;99.90;;;;;;5031485;28;20044;-66
2022/04/05 02:41:37;;;;;;;19.90;11.98;;;18.90;99.90;;;;;;5030389;28;20105;-67
2022/04/05 02:44:03;;;;;;;19.23;12.57;;;18.90;99.90;;;;;;5031392;28;20018;-70
2022/04/05 02:46:29;;;;;;;19.10;11.60;;;18.90;99.90;;;;;;5031459;28;20432;-69
2022/04/05 02:48:55;;;;;;;21.15;11.20;;;18.90;99.90;;;;;;5031477;28;20033;-69
2022/04/05 02:51:22;;;;;;;20.33;11.95;;;18.90;99.90;;;;;;5031571;28;20487;-74
2022/04/05 02:53:48;;;;;;;21.17;12.63;;;18.90;99.90;;;;;;5031495;28;20056;-75
2022/04/05 02:56:15;;;;;;;19.63;11.73;;;18.90;99.90;;;;;;5031121;28;20026;-75
2022/04/05 02:58:41;;;;;;;19.70;12.50;;;18.90;99.90;;;;;;5030562;28;20513;-72
2022/04/05 03:01:07;;;;;;;19.02;11.05;;;18.90;99.90;;;;;;5031517;28;20045;-72
2022/04/05 03:03:33;;;;;;;20.67;11.48;;;18.90;99.90;;;;;;5031082;28;20037;-72
2022/04/05 03:06:00;;;;;;;19.15;11.88;;;18.90;99.90;;;;;;5031294;28;20385;-73
2022/04/05 03:08:25;;;;;;;20.70;12.30;;;18.90;99.90;;;;;;5031057;28;20481;-73
2022/04/05 03:10:53;;;;;;;19.42;10.98;;;18.90;99.90;;;;;;5029811;28;20025;-73
2022/04/05 03:13:19;;;;;;;18.75;11.23;;;18.90;99.90;;;;;;5031111;28;20148;-72
2022/04/05 03:15:45;;;;;;;17.38;10.88;;;18.90;99.90;;;;;;5030963;28;20082;-73
2022/04/05 03:18:11;;;;;;;22.15;11.98;;;18.90;99.90;;;;;;5031243;28;20018;-72
2022/04/05 03:20:37;;;;;;;18.23;11.45;;;18.90;99.90;;;;;;5031262;28;20389;-72
2022/04/05 03:23:04;;;;;;;23.00;11.43;;;18.80;99.90;;;;;;5031140;28;20017;-65
2022/04/05 03:25:30;;;;;;;19.63;11.07;;;18.90;99.90;;;;;;5031020;28;20440;-68
2022/04/05 03:28:01;;;;;;;20.25;11.98;;;18.80;99.90;;;;;;5031034;28;20480;-74
2022/04/05 03:30:26;;;;;;;17.15;10.50;;;18.90;99.90;;;;;;5031042;28;20433;-64
2022/04/05 03:32:52;;;;;;;16.52;11.05;;;18.90;99.90;;;;;;5030974;28;20104;-66
2022/04/05 03:35:19;;;;;;;17.60;11.77;;;18.90;99.90;;;;;;5030879;28;20030;-67
2022/04/05 03:37:45;;;;;;;19.58;11.30;;;18.80;99.90;;;;;;5030977;28;20378;-69
2022/04/05 03:40:13;;;;;;;18.17;10.52;;;18.80;99.90;;;;;;5030944;28;20036;-69
2022/04/05 03:42:39;;;;;;;21.52;11.43;;;18.80;99.90;;;;;;5031030;28;20033;-69
2022/04/05 03:45:06;;;;;;;19.40;10.98;;;18.80;99.90;;;;;;5031005;28;20069;-69
2022/04/05 03:47:32;;;;;;;19.73;10.95;;;18.80;99.90;;;;;;5030978;28;20452;-68
2022/04/05 03:49:58;;;;;;;20.77;10.10;;;18.80;99.90;;;;;;5031019;28;20047;-67
2022/04/05 03:52:24;;;;;;;17.58;11.00;;;18.80;99.90;;;;;;5030720;28;20037;-68
2022/04/05 03:54:50;;;;;;;18.95;10.52;;;18.80;99.90;;;;;;5030750;28;20386;-68
2022/04/05 03:57:16;;;;;;;14.43;9.40;;;18.80;99.90;;;;;;5030798;28;20123;-68
2022/04/05 03:59:42;;;;;;;15.13;10.27;;;18.80;99.90;;;;;;5043088;22;20042;-52
2022/04/05 04:02:08;;;;;;;14.40;9.18;;;18.80;99.90;;;;;;5031207;28;20029;-52
2022/04/05 04:04:34;;;;;;;15.05;10.23;;;18.80;99.90;;;;;;5030643;28;20033;-53
2022/04/05 04:07:00;;;;;;;16.27;10.63;;;18.80;99.90;;;;;;5029445;28;20025;-53
2022/04/05 04:09:25;;;;;;;16.63;9.82;;;18.80;99.90;;;;;;5030703;28;20026;-53
2022/04/05 04:11:52;;;;;;;19.02;9.70;;;18.80;99.90;;;;;;5033534;28;20060;-53
2022/04/05 04:14:18;;;;;;;13.95;9.43;;;18.80;99.90;;;;;;5034380;28;20029;-53
2022/04/05 04:16:43;;;;;;;16.30;9.45;;;18.80;99.90;;;;;;5034287;28;20029;-53
2022/04/05 04:19:09;;;;;;;16.90;9.20;;;18.80;99.90;;;;;;5034231;28;20033;-53
2022/04/05 04:21:35;;;;;;;17.90;10.02;;;18.80;99.90;;;;;;5034204;28;20033;-52
2022/04/05 04:24:01;;;;;;;14.23;9.20;;;18.80;99.90;;;;;;5034026;28;20436;-53
2022/04/05 04:26:27;;;;;;;13.95;9.10;;;18.80;99.90;;;;;;5034036;28;20060;-54
2022/04/05 04:28:57;;;;;;;13.27;8.55;;;18.80;99.90;;;;;;5033932;28;20057;-53
2022/04/05 04:31:23;;;;;;;13.90;9.63;;;18.80;99.90;;;;;;5034072;28;20104;-53
2022/04/05 04:33:49;;;;;;;13.02;8.32;;;18.80;99.90;;;;;;5033950;28;20079;-53
2022/04/05 04:36:15;;;;;;;15.50;8.63;;;18.80;99.90;;;;;;5034092;28;20482;-52
2022/04/05 04:38:41;;;;;;;18.45;8.65;;;18.80;99.90;;;;;;5033868;28;20033;-53
2022/04/05 04:41:07;;;;;;;15.13;8.85;;;18.80;99.90;;;;;;5033856;28;20100;-53
2022/04/05 04:43:33;;;;;;;15.20;8.80;;;18.80;99.90;;;;;;5033768;28;20018;-52
2022/04/05 04:45:59;;;;;;;15.48;9.10;;;18.80;99.90;;;;;;5033915;28;20029;-54
2022/04/05 04:48:24;;;;;;;14.57;8.98;;;18.80;99.90;;;;;;5033781;28;20469;-54
2022/04/05 04:50:50;;;;;;;12.73;7.72;;;18.80;99.90;;;;;;5033516;28;20065;-52
2022/04/05 04:53:16;;;;;;;16.23;8.50;;;18.80;99.90;;;;;;5033609;28;20025;-52
2022/04/05 04:55:42;;;;;;;14.65;8.60;;;18.80;99.90;;;;;;5033577;28;20540;-52
2022/04/05 04:58:08;;;;;;;15.02;8.93;;;18.80;99.90;;;;;;5033449;28;20101;-53
2022/04/05 05:00:34;;;;;;;15.10;9.13;;;18.80;99.90;;;;;;5033356;28;20115;-53
2022/04/05 05:03:00;;;;;;;13.25;8.40;;;18.80;99.90;;;;;;5033310;28;20022;-53
2022/04/05 05:05:26;;;;;;;13.70;8.73;;;18.80;99.90;;;;;;5033119;28;20025;-53
2022/04/05 05:07:52;;;;;;;14.55;8.73;;;18.80;99.90;;;;;;5033270;28;20021;-53
2022/04/05 05:10:20;;;;;;;14.52;8.70;;;18.80;99.90;;;;;;5031942;28;20381;-53
2022/04/05 05:12:46;;;;;;;14.65;8.68;;;18.80;99.90;;;;;;5033395;28;20132;-52
2022/04/05 05:15:18;;;;;;;15.32;9.20;;;18.80;99.90;;;;;;5032990;28;20384;-53
2022/04/05 05:17:45;;;;;;;13.43;9.00;;;18.80;99.90;;;;;;5031973;28;20025;-52
2022/04/05 05:20:12;;;;;;;13.68;8.68;;;18.80;99.90;;;;;;5031705;28;20040;-53
2022/04/05 05:22:39;;;;;;;13.48;8.18;;;18.80;99.90;;;;;;5031996;28;20120;-52
2022/04/05 05:25:06;;;;;;;15.23;8.82;;;18.80;99.90;;;;;;5033058;28;20026;-51
2022/04/05 05:27:32;;;;;;;14.05;8.30;;;18.80;99.90;;;;;;5032951;28;20026;-53
2022/04/05 05:29:58;;;;;;;15.18;9.05;;;18.80;99.90;;;;;;5032870;28;20073;-53
2022/04/05 05:32:24;;;;;;;16.15;8.73;;;18.80;99.90;;;;;;5032931;28;20088;-52
2022/04/05 05:34:50;;;;;;;15.50;8.73;;;18.80;99.90;;;;;;5032728;28;20501;-52
2022/04/05 05:37:16;;;;;;;13.95;8.63;;;18.80;99.90;;;;;;5032867;28;20022;-51
2022/04/05 05:39:41;;;;;;;15.57;8.23;;;18.80;99.90;;;;;;5032698;28;20065;-52
2022/04/05 05:42:08;;;;;;;18.98;9.52;;;18.80;99.90;;;;;;5032633;28;20029;-52
2022/04/05 05:44:34;;;;;;;13.65;7.60;;;18.70;99.90;;;;;;5031482;28;20102;-51
2022/04/05 05:47:02;;;;;;;14.05;8.88;;;18.80;99.90;;;;;;5032544;28;20021;-51
2022/04/05 05:49:28;;;;;;;14.70;9.13;;;18.80;99.90;;;;;;5032426;28;20057;-51
2022/04/05 05:51:54;;;;;;;14.68;8.52;;;18.80;99.90;;;;;;5032412;28;20399;-52
2022/04/05 05:54:19;;;;;;;14.18;8.65;;;18.70;99.90;;;;;;5032367;28;20034;-51
2022/04/05 05:56:45;;;;;;;14.32;8.07;;;18.80;99.90;;;;;;5032503;28;20052;-51
2022/04/05 05:59:11;;;;;;;12.23;8.52;;;18.80;99.90;;;;;;5030955;28;20033;-52
2022/04/05 06:01:38;;;;;;;14.82;9.48;;;18.80;99.90;;;;;;5032031;28;20048;-52
2022/04/05 06:04:04;;;;;;;13.18;8.10;;;18.80;99.90;;;;;;5032098;28;20433;-52
2022/04/05 06:06:29;;;;;;;11.65;7.88;;;18.80;99.90;;;;;;5032207;28;20052;-52
2022/04/05 06:08:56;;;;;;;16.58;9.32;;;18.80;99.90;;;;;;5032041;28;20108;-52
2022/04/05 06:11:25;;;;;;;12.63;8.10;;;18.80;99.90;;;;;;5032156;28;20484;-51
2022/04/05 06:13:51;;;;;;;14.30;9.00;;;18.80;99.90;;;;;;5032060;28;20030;-51
2022/04/05 06:16:18;;;;;;;11.57;7.47;;;18.80;99.90;;;;;;5032083;28;20025;-51
2022/04/05 06:18:47;;;;;;;16.02;7.88;;;18.80;99.90;;;;;;5031922;28;20118;-51
2022/04/05 06:21:13;;;;;;;12.75;7.85;;;18.80;99.90;;;;;;5031939;28;20029;-51
2022/04/05 06:23:39;;;;;;;12.98;9.10;;;18.80;99.90;;;;;;5031910;28;20037;-51
2022/04/05 06:26:05;;;;;;;14.23;7.88;;;18.80;99.90;;;;;;5030514;28;20053;-51
2022/04/05 06:28:31;;;;;;;13.98;8.20;;;18.80;99.90;;;;;;5031708;28;20025;-52
2022/04/05 06:30:57;;;;;;;12.05;7.93;;;18.70;99.90;;;;;;5031761;28;20393;-52
2022/04/05 06:33:23;;;;;;;13.88;7.57;;;18.70;99.90;;;;;;5031562;28;20029;-52
2022/04/05 06:35:51;;;;;;;12.38;7.40;;;18.80;99.90;;;;;;5031865;28;20053;-51
2022/04/05 06:38:17;;;;;;;15.85;9.23;;;18.70;99.90;;;;;;5031691;28;20033;-51
2022/04/05 06:40:44;;;;;;;11.68;7.35;;;18.70;99.90;;;;;;5031660;28;20033;-51
2022/04/05 06:43:11;;;;;;;17.05;8.15;;;18.70;99.90;;;;;;5031740;28;20188;-51
2022/04/05 06:45:37;;;;;;;13.80;8.68;;;18.80;99.90;;;;;;5031454;28;20053;-52
2022/04/05 06:48:05;;;;;;;12.93;8.70;;;18.80;99.90;;;;;;5031385;28;20068;-52
2022/04/05 06:50:30;;;;;;;13.68;7.93;;;18.70;99.90;;;;;;5031506;28;20481;-52
2022/04/05 06:52:58;;;;;;;13.82;7.93;;;18.70;99.90;;;;;;5031255;28;20128;-52
2022/04/05 06:55:24;;;;;;;;;;;18.80;99.90;;;;;;5031805;28;20021;-52
2022/04/05 06:57:50;;;;;;;14.77;8.07;;;18.80;99.90;;;;;;5031649;28;19975;-52
2022/04/05 07:00:22;;;;;;;15.30;7.80;;;18.70;99.90;;;;;;5029781;28;20501;-51
2022/04/05 07:02:48;;;;;;;13.05;8.23;;;18.80;99.90;;;;;;5031330;28;20488;-51
2022/04/05 07:05:14;;;;;;;12.63;8.02;;;18.80;99.90;;;;;;5030139;28;20152;-51
2022/04/05 07:07:40;;;;;;;12.55;8.70;;;18.80;99.90;;;;;;5031169;28;20468;-50
2022/04/05 07:10:08;;;;;;;13.55;8.48;;;18.70;99.90;;;;;;5031228;28;20030;-51
2022/04/05 07:12:35;;;;;;;13.65;8.32;;;18.70;99.90;;;;;;5031214;28;20029;-51
2022/04/05 07:15:00;;;;;;;13.52;8.20;;;18.70;99.90;;;;;;5031198;28;20021;-51
2022/04/05 07:17:26;;;;;;;13.95;8.43;;;18.70;99.90;;;;;;5031210;28;20374;-52
2022/04/05 07:19:53;;;;;;;11.80;7.70;;;18.70;99.90;;;;;;5031421;28;20105;-51
2022/04/05 07:22:19;;;;;;;15.32;8.80;;;18.80;99.90;;;;;;5031191;28;20025;-51
2022/04/05 07:24:46;;;;;;;14.65;9.02;;;18.70;99.90;;;;;;5031071;28;20029;-52
2022/04/05 07:27:12;;;;;;;12.40;8.65;;;18.70;99.90;;;;;;5031126;28;20018;-51
2022/04/05 07:29:38;;;;;;;18.80;9.77;;;18.70;99.90;;;;;;5030940;28;20034;-51
2022/04/05 07:32:05;;;;;;;13.27;8.85;;;18.70;99.90;;;;;;5030952;28;20028;-51
2022/04/05 07:34:30;;;;;;;14.63;8.40;;;18.80;99.90;;;;;;5030829;28;20038;-51
2022/04/05 07:36:56;;;;;;;14.85;8.98;;;18.80;99.90;;;;;;5030830;28;20030;-52
2022/04/05 07:39:23;;;;;;;17.08;9.13;;;18.70;99.90;;;;;;5030915;28;20485;-51
2022/04/05 07:41:49;;;;;;;17.52;9.07;;;18.80;99.90;;;;;;5031018;28;20045;-52
2022/04/05 07:44:15;;;;;;;14.20;8.90;;;18.80;99.90;;;;;;5030993;28;20482;-53
2022/04/05 07:46:41;;;;;;;15.15;8.98;;;18.70;99.90;;;;;;5033498;28;20052;-51
2022/04/05 07:49:07;;;;;;;12.77;8.00;;;18.70;99.90;;;;;;5034700;28;20022;-52
2022/04/05 07:51:33;;;;;;;15.68;8.30;;;18.70;99.90;;;;;;5034579;28;20022;-53
2022/04/05 07:53:59;;;;;;;15.20;9.13;;;18.70;99.90;;;;;;5034670;28;20028;-52
2022/04/05 07:56:25;;;;;;;15.35;8.13;;;18.80;99.90;;;;;;5035082;28;20382;-53
2022/04/05 07:58:51;;;;;;;12.63;8.57;;;18.70;99.90;;;;;;5034505;28;20042;-52
2022/04/05 08:01:17;;;;;;;13.70;7.90;;;18.70;99.90;;;;;;5034363;28;20041;-52
2022/04/05 08:03:42;;;;;;;13.57;8.90;;;18.70;99.90;;;;;;5034410;28;20096;-53
2022/04/05 08:06:08;;;;;;;15.18;8.23;;;18.70;99.90;;;;;;5033107;28;20025;-52
2022/04/05 08:08:34;;;;;;;12.48;8.20;;;18.70;99.90;;;;;;5034380;28;20105;-52
2022/04/05 08:11:00;;;;;;;15.68;9.55;;;18.70;99.90;;;;;;5034446;28;20021;-53
2022/04/05 08:13:26;;;;;;;14.98;9.18;;;18.70;99.90;;;;;;5034450;28;20025;-53
2022/04/05 08:15:53;;;;;;;13.75;8.38;;;18.70;99.90;;;;;;5034379;28;20032;-52
2022/04/05 08:18:20;;;;;;;13.77;9.33;;;18.70;99.90;;;;;;5034095;28;20410;-52
2022/04/05 08:20:46;;;;;;;16.75;8.98;;;18.70;99.90;;;;;;5034212;28;20037;-53
2022/04/05 08:23:12;;;;;;;14.23;8.85;;;18.70;99.90;;;;;;5032897;28;20163;-52
2022/04/05 08:25:37;;;;;;;14.85;8.60;;;18.70;99.90;;;;;;5033918;28;20026;-53
2022/04/05 08:28:04;;;;;;;14.98;8.77;;;18.70;99.90;;;;;;5033889;28;20109;-53
2022/04/05 08:30:31;;;;;;;14.70;9.85;;;18.70;99.90;;;;;;5034046;28;20477;-50
2022/04/05 08:32:57;;;;;;;17.80;9.48;;;18.70;99.90;;;;;;5034032;28;20038;-51
2022/04/05 08:35:24;;;;;;;17.25;10.73;;;18.70;99.90;;;;;;5033815;28;20021;-51
2022/04/05 08:37:53;;;;;;;14.68;8.75;;;18.70;99.90;;;;;;5033774;28;20026;-51
2022/04/05 08:40:21;;;;;;;16.52;9.88;;;18.70;99.90;;;;;;5033633;28;20041;-51
2022/04/05 08:42:55;;;;;;;14.50;8.98;;;18.70;99.90;;;;;;5033659;28;20101;-51
2022/04/05 08:45:22;;;;;;;14.15;9.40;;;18.80;99.90;;;;;;5033580;28;20029;-51
2022/04/05 08:47:54;;;;;;;16.38;10.77;;;18.80;99.90;;;;;;5033588;28;20030;-52
2022/04/05 08:50:38;;;;;;;15.80;9.23;;;18.80;99.90;;;;;;5033580;28;20438;-52
2022/04/05 08:53:04;;;;;;;15.82;10.35;;;18.80;99.90;;;;;;5033644;28;20458;-51
2022/04/05 08:55:30;;;;;;;17.50;10.30;;;18.80;99.90;;;;;;5032198;28;20013;-51
2022/04/05 08:57:56;;;;;;;16.10;9.90;;;18.80;99.90;;;;;;5032544;28;20044;-51
2022/04/05 09:00:23;;;;;;;17.25;9.98;;;18.80;99.90;;;;;;5033297;28;20568;-52
2022/04/05 09:02:59;;;;;;;15.40;10.75;;;18.80;99.90;;;;;;5033378;28;20037;-52
2022/04/05 09:05:33;;;;;;;16.98;10.55;;;18.80;99.90;;;;;;5033375;28;20029;-51
2022/04/05 09:08:31;;;;;;;15.35;9.48;;;18.70;99.90;;;;;;5033510;28;20040;-53
2022/04/05 09:11:12;;;;;;;19.15;10.73;;;18.80;99.90;;;;;;4999890;28;20033;-51
2022/04/05 09:13:38;;;;;;;20.48;12.10;;;18.80;99.90;;;;;;5032988;28;20384;-52
2022/04/05 09:16:05;;;;;;;28.83;15.40;;;18.80;99.90;;;;;;5033053;28;20022;-52
2022/04/05 09:18:54;;;;;;;31.25;17.38;;;18.80;99.90;;;;;;5031509;28;20053;-52
2022/04/05 09:21:20;;;;;;;37.53;21.10;;;18.80;99.90;;;;;;5032917;28;20045;-52
2022/04/05 09:23:48;;;;;;;54.30;26.33;;;18.80;99.90;;;;;;5033205;28;20025;-51
2022/04/05 09:26:17;;;;;;;52.75;25.85;;;18.80;99.90;;;;;;5032892;28;20422;-52
2022/04/05 09:28:44;;;;;;;48.60;26.52;;;18.80;99.90;;;;;;5032711;28;20025;-52
2022/04/05 09:31:11;;;;;;;;;;;18.80;99.90;;;;;;5033314;28;20489;-51
2022/04/05 09:34:01;;;;;;;64.32;29.60;;;18.80;99.90;;;;;;5032879;28;19912;-51
2022/04/05 09:36:42;;;;;;;65.20;33.17;;;18.80;99.90;;;;;;5032979;28;20025;-52
2022/04/05 09:39:19;;;;;;;73.05;35.95;;;18.80;99.90;;;;;;5032640;28;20048;-52
2022/04/05 09:41:47;;;;;;;76.55;38.53;;;18.80;99.90;;;;;;5032640;28;20535;-53
2022/04/05 09:44:13;;;;;;;78.40;39.70;;;18.80;99.90;;;;;;5032577;28;20029;-52
2022/04/05 09:46:40;;;;;;;83.90;39.28;;;18.80;99.90;;;;;;5032461;28;20021;-52
2022/04/05 09:49:13;;;;;;;80.53;39.20;;;18.80;99.90;;;;;;5032443;28;20029;-52
2022/04/05 09:51:43;;;;;;;86.43;40.22;;;18.80;99.90;;;;;;5032207;28;20065;-52
2022/04/05 09:54:27;;;;;;;89.40;43.20;;;18.80;99.90;;;;;;5032350;28;20077;-51
2022/04/05 09:57:00;;;;;;;95.95;46.25;;;18.80;99.90;;;;;;5032337;28;20029;-51
2022/04/05 09:59:36;;;;;;;96.60;46.78;;;18.80;99.90;;;;;;5032143;28;20029;-52
2022/04/05 10:02:16;;;;;;;104.30;50.33;;;18.80;99.90;;;;;;5032500;28;20046;-52
2022/04/05 10:05:06;;;;;;;104.18;50.55;;;18.80;99.90;;;;;;5032206;28;20053;-52
2022/04/05 10:07:33;;;;;;;94.50;47.08;;;18.80;99.90;;;;;;5032404;28;20045;-53
2022/04/05 10:10:02;;;;;;;103.03;49.92;;;18.80;99.90;;;;;;5030626;28;20024;-53
2022/04/05 10:12:28;;;;;;;99.03;49.65;;;18.80;99.90;;;;;;5032202;28;20112;-51
2022/04/05 10:14:55;;;;;;;100.25;50.15;;;18.80;99.90;;;;;;5032028;28;20073;-54
2022/04/05 10:17:26;;;;;;;104.75;50.45;;;18.80;99.90;;;;;;5031941;28;20389;-53
2022/04/05 10:19:54;;;;;;;96.70;47.80;;;18.80;99.90;;;;;;5032012;28;20474;-51
2022/04/05 10:22:22;;;;;;;94.38;49.53;;;18.80;99.90;;;;;;5031928;28;20034;-52
2022/04/05 10:24:53;;;;;;;94.25;49.33;;;18.80;99.90;;;;;;5030626;28;20033;-51
2022/04/05 10:27:23;;;;;;;94.68;48.42;;;18.80;99.90;;;;;;5031847;28;20017;-51
2022/04/05 10:30:15;;;;;;;99.80;48.78;;;18.80;99.90;;;;;;5031712;28;20024;-51
2022/04/05 10:33:07;;;;;;;97.93;49.58;;;18.80;99.90;;;;;;5030429;28;20021;-52
2022/04/05 10:35:41;;;;;;;95.97;49.30;;;18.80;99.90;;;;;;5031912;28;20037;-51
2022/04/05 10:38:18;;;;;;;91.72;47.80;;;18.80;99.90;;;;;;5031956;28;20108;-51
2022/04/05 10:41:17;;;;;;;96.28;47.90;;;18.80;99.90;;;;;;5031656;28;20037;-52
2022/04/05 10:43:44;;;;;;;92.93;48.95;;;18.80;99.90;;;;;;5031508;28;20021;-51
2022/04/05 10:46:11;;;;;;;91.07;46.17;;;18.90;99.90;;;;;;5031636;28;20029;-51
2022/04/05 10:48:37;;;;;;;92.78;47.85;;;18.90;99.90;;;;;;5031493;28;20038;-51
2022/04/05 10:51:05;;;;;;;91.30;45.67;;;18.80;99.90;;;;;;5031682;28;20024;-50
2022/04/05 10:56:29;;;;;;;89.50;46.38;;;18.90;99.90;;;;;;5031425;28;20087;-51
2022/04/05 10:58:54;;;;;;;81.60;44.03;;;18.90;99.90;;;;;;5031354;28;20087;-51
2022/04/05 11:01:22;;;;;;;90.18;45.65;;;18.90;99.90;;;;;;5031165;28;20056;-51
2022/04/05 11:04:07;;;;;;;;;;;18.90;99.90;;;;;;5031691;28;20072;-51
2022/04/05 11:06:58;;;;;;;85.05;43.22;;;18.90;99.90;;;;;;5031478;28;19996;-51
2022/04/05 11:09:34;;;;;;;85.55;45.40;;;18.90;99.90;;;;;;5031024;28;20501;-50
2022/04/05 11:12:03;;;;;;;84.75;43.22;;;18.90;99.90;;;;;;5031089;28;20033;-52
2022/04/05 11:14:40;;;;;;;83.65;44.38;;;18.90;99.90;;;;;;5031359;28;20045;-51
2022/04/05 11:17:07;;;;;;;80.57;40.47;;;18.90;99.90;;;;;;5031441;28;20033;-52
2022/04/05 11:19:38;;;;;;;79.30;41.45;;;18.90;99.90;;;;;;5031040;28;20036;-50
2022/04/05 11:22:24;;;;;;;80.70;41.67;;;18.90;99.90;;;;;;5034813;28;20033;-51
2022/04/05 11:24:50;;;;;;;82.05;42.67;;;18.90;99.90;;;;;;5033957;28;20121;-51
2022/04/05 11:27:30;;;;;;;75.72;39.22;;;18.90;99.90;;;;;;5033870;28;20116;-51
2022/04/05 11:30:21;;;;;;;80.78;41.58;;;18.90;99.90;;;;;;5035380;28;20025;-52
2022/04/05 11:33:09;;;;;;;69.70;38.92;;;18.90;99.90;;;;;;5035199;28;20410;-51
2022/04/05 11:35:34;;;;;;;;;;;18.90;99.90;;;;;;5034235;28;20026;-51
2022/04/05 11:38:01;;;;;;;73.53;38.10;;;18.90;99.90;;;;;;5035020;28;19911;-52
2022/04/05 11:40:27;;;;;;;66.25;35.33;;;18.90;99.90;;;;;;5034973;28;20291;-51
2022/04/05 11:42:53;;;;;;;70.72;36.40;;;18.90;99.90;;;;;;5034929;28;20033;-52
2022/04/05 11:45:20;;;;;;;68.93;36.03;;;18.90;99.90;;;;;;5035095;28;20406;-52
2022/04/05 11:47:53;;;;;;;65.40;35.50;;;18.90;99.90;;;;;;5034851;28;20064;-51
2022/04/05 11:50:20;;;;;;;69.72;36.88;;;18.80;99.90;;;;;;5034797;28;20469;-52
2022/04/05 11:52:46;;;;;;;68.28;35.97;;;18.80;99.90;;;;;;5034795;28;20025;-52
2022/04/05 11:58:10;;;;;;;65.70;33.35;;;18.90;99.90;;;;;;5034812;28;20032;-52
2022/04/05 12:00:50;;;;;;;63.47;33.05;;;18.90;99.90;;;;;;5034692;28;20136;-49
2022/04/05 12:03:16;;;;;;;58.30;31.27;;;18.80;99.90;;;;;;5034511;28;20037;-50
2022/04/05 12:05:46;;;;;;;59.72;31.30;;;18.80;99.90;;;;;;5033234;28;20084;-51
2022/04/05 12:08:13;;;;;;;55.90;30.13;;;18.80;99.90;;;;;;5033154;28;20433;-51
2022/04/05 12:10:40;;;;;;;56.17;30.38;;;18.80;99.90;;;;;;5034506;28;20084;-51
2022/04/05 12:13:06;;;;;;;58.22;30.05;;;18.80;99.90;;;;;;5034705;28;20018;-51
2022/04/05 12:15:33;;;;;;;53.25;28.65;;;18.80;99.90;;;;;;5034220;28;20040;-51
2022/04/05 12:18:20;;;;;;;49.60;25.98;;;18.80;99.90;;;;;;5034419;28;20030;-51
2022/04/05 12:20:56;;;;;;;51.85;28.50;;;18.80;99.90;;;;;;5034199;28;20037;-51
2022/04/05 12:23:22;;;;;;;56.13;29.20;;;18.80;99.90;;;;;;5034212;28;20060;-50
2022/04/05 12:26:09;;;;;;;52.08;27.42;;;18.80;99.90;;;;;;5034184;28;20035;-50
2022/04/05 12:28:40;;;;;;;50.90;25.83;;;18.80;99.90;;;;;;5034150;28;20430;-51
2022/04/05 12:31:08;;;;;;;46.95;26.98;;;18.80;99.90;;;;;;5032642;28;20056;-51
2022/04/05 12:33:34;;;;;;;45.97;26.33;;;18.80;99.90;;;;;;5033851;28;20083;-51
2022/04/05 12:36:01;;;;;;;46.17;25.15;;;18.80;99.90;;;;;;5033951;28;20108;-51
2022/04/05 12:38:27;;;;;;;44.67;23.80;;;18.80;99.90;;;;;;5033908;28;20049;-51
2022/04/05 12:40:53;;;;;;;47.45;24.73;;;18.80;99.90;;;;;;5033771;28;20496;-52